sensor_id;sensor_type;location;lat;lon;timestamp;P1;durP1;ratioP1;P2;durP2;ratioP2
41077;SDS011;26823;42.662;23.352;2023-04-01T00:01:19;20.67;;;8.77;;
41077;SDS011;26823;42.662;23.352;2023-04-01T00:03:45;22.85;;;11.40;;
41077;SDS011;26823;42.662;23.352;2023-04-01T00:06:11;30.15;;;12.63;;
41077;SDS011;26823;42.662;23.352;2023-04-01T00:08:38;26.05;;;12.40;;
41077;SDS011;26823;42.662;23.352;2023-04-01T00:11:04;23.50;;;11.43;;
41077;SDS011;26823;42.662;23.352;2023-04-01T00:13:30;19.75;;;10.73;;
41077;SDS011;26823;42.662;23.352;2023-04-01T00:15:55;22.63;;;9.93;;
41077;SDS011;26823;42.662;23.352;2023-04-01T00:18:21;15.90;;;8.35;;
41077;SDS011;26823;42.662;23.352;2023-04-01T00:20:48;17.63;;;8.95;;
41077;SDS011;26823;42.662;23.352;2023-04-01T00:23:15;15.32;;;9.38;;
41077;SDS011;26823;42.662;23.352;2023-04-01T00:25:41;13.48;;;8.02;;
41077;SDS011;26823;42.662;23.352;2023-04-01T00:28:07;17.02;;;9.07;;
41077;SDS011;26823;42.662;23.352;2023-04-01T00:30:32;16.75;;;9.38;;
41077;SDS011;26823;42.662;23.352;2023-04-01T00:32:58;16.50;;;9.00;;
41077;SDS011;26823;42.662;23.352;2023-04-01T00:35:23;21.17;;;8.82;;
41077;SDS011;26823;42.662;23.352;2023-04-01T00:37:49;19.08;;;9.43;;
41077;SDS011;26823;42.662;23.352;2023-04-01T00:40:23;18.13;;;8.80;;
41077;SDS011;26823;42.662;23.352;2023-04-01T00:42:51;14.38;;;8.07;;
41077;SDS011;26823;42.662;23.352;2023-04-01T00:45:25;14.75;;;7.72;;
41077;SDS011;26823;42.662;23.352;2023-04-01T00:48:07;13.70;;;7.97;;
41077;SDS011;26823;42.662;23.352;2023-04-01T00:50:36;12.50;;;8.23;;
41077;SDS011;26823;42.662;23.352;2023-04-01T00:53:03;12.32;;;7.10;;
41077;SDS011;26823;42.662;23.352;2023-04-01T00:55:32;11.50;;;7.35;;
41077;SDS011;26823;42.662;23.352;2023-04-01T00:58:01;11.70;;;7.78;;
41077;SDS011;26823;42.662;23.352;2023-04-01T01:00:30;11.70;;;7.32;;
41077;SDS011;26823;42.662;23.352;2023-04-01T01:02:56;13.00;;;7.90;;
41077;SDS011;26823;42.662;23.352;2023-04-01T01:05:24;14.18;;;7.75;;
41077;SDS011;26823;42.662;23.352;2023-04-01T01:08:02;18.52;;;7.18;;
41077;SDS011;26823;42.662;23.352;2023-04-01T01:10:50;11.57;;;6.47;;
41077;SDS011;26823;42.662;23.352;2023-04-01T01:27:16;12.20;;;6.03;;
41077;SDS011;26823;42.662;23.352;2023-04-01T01:37:15;9.70;;;5.40;;
41077;SDS011;26823;42.662;23.352;2023-04-01T01:39:44;9.05;;;5.15;;
41077;SDS011;26823;42.662;23.352;2023-04-01T01:42:17;10.18;;;6.53;;
41077;SDS011;26823;42.662;23.352;2023-04-01T01:44:45;11.23;;;5.13;;
41077;SDS011;26823;42.662;23.352;2023-04-01T01:47:13;7.97;;;4.88;;
41077;SDS011;26823;42.662;23.352;2023-04-01T01:49:41;9.95;;;5.22;;
41077;SDS011;26823;42.662;23.352;2023-04-01T01:52:09;7.88;;;4.65;;
41077;SDS011;26823;42.662;23.352;2023-04-01T01:54:35;11.32;;;5.47;;
41077;SDS011;26823;42.662;23.352;2023-04-01T01:57:05;13.13;;;6.22;;
41077;SDS011;26823;42.662;23.352;2023-04-01T01:59:33;6.40;;;3.50;;
41077;SDS011;26823;42.662;23.352;2023-04-01T02:02:03;9.77;;;4.10;;
41077;SDS011;26823;42.662;23.352;2023-04-01T02:04:42;8.13;;;3.55;;
41077;SDS011;26823;42.662;23.352;2023-04-01T02:07:23;13.07;;;4.35;;
41077;SDS011;26823;42.662;23.352;2023-04-01T02:09:53;7.78;;;4.88;;
41077;SDS011;26823;42.662;23.352;2023-04-01T02:12:19;8.20;;;3.95;;
41077;SDS011;26823;42.662;23.352;2023-04-01T02:14:54;8.35;;;4.65;;
41077;SDS011;26823;42.662;23.352;2023-04-01T02:17:44;10.45;;;3.15;;
41077;SDS011;26823;42.662;23.352;2023-04-01T02:20:19;9.15;;;3.75;;
41077;SDS011;26823;42.662;23.352;2023-04-01T02:22:51;6.03;;;3.55;;
41077;SDS011;26823;42.662;23.352;2023-04-01T02:25:37;9.20;;;3.95;;
41077;SDS011;26823;42.662;23.352;2023-04-01T02:28:06;9.75;;;4.72;;
41077;SDS011;26823;42.662;23.352;2023-04-01T02:30:33;9.90;;;4.47;;
41077;SDS011;26823;42.662;23.352;2023-04-01T02:33:03;9.27;;;4.88;;
41077;SDS011;26823;42.662;23.352;2023-04-01T02:35:30;4.97;;;3.50;;
41077;SDS011;26823;42.662;23.352;2023-04-01T02:37:59;5.78;;;3.88;;
41077;SDS011;26823;42.662;23.352;2023-04-01T02:40:24;6.65;;;4.10;;
41077;SDS011;26823;42.662;23.352;2023-04-01T02:42:50;7.85;;;4.65;;
41077;SDS011;26823;42.662;23.352;2023-04-01T02:45:15;9.45;;;5.30;;
41077;SDS011;26823;42.662;23.352;2023-04-01T02:47:41;10.70;;;4.78;;
41077;SDS011;26823;42.662;23.352;2023-04-01T02:50:07;8.60;;;4.57;;
41077;SDS011;26823;42.662;23.352;2023-04-01T02:52:33;9.13;;;5.00;;
41077;SDS011;26823;42.662;23.352;2023-04-01T02:54:58;10.15;;;5.20;;
41077;SDS011;26823;42.662;23.352;2023-04-01T02:57:24;8.30;;;3.90;;
41077;SDS011;26823;42.662;23.352;2023-04-01T02:59:50;15.48;;;4.72;;
41077;SDS011;26823;42.662;23.352;2023-04-01T03:02:16;7.50;;;4.30;;
41077;SDS011;26823;42.662;23.352;2023-04-01T03:04:42;10.10;;;4.30;;
41077;SDS011;26823;42.662;23.352;2023-04-01T03:07:08;9.98;;;4.65;;
41077;SDS011;26823;42.662;23.352;2023-04-01T03:09:35;5.97;;;3.90;;
41077;SDS011;26823;42.662;23.352;2023-04-01T03:12:02;8.82;;;4.00;;
41077;SDS011;26823;42.662;23.352;2023-04-01T03:14:27;9.43;;;3.83;;
41077;SDS011;26823;42.662;23.352;2023-04-01T03:16:53;6.75;;;4.20;;
41077;SDS011;26823;42.662;23.352;2023-04-01T03:19:18;10.88;;;4.22;;
41077;SDS011;26823;42.662;23.352;2023-04-01T03:21:44;6.60;;;3.53;;
41077;SDS011;26823;42.662;23.352;2023-04-01T03:24:09;7.55;;;4.30;;
41077;SDS011;26823;42.662;23.352;2023-04-01T03:26:35;13.63;;;4.57;;
41077;SDS011;26823;42.662;23.352;2023-04-01T03:29:00;10.10;;;4.57;;
41077;SDS011;26823;42.662;23.352;2023-04-01T03:31:25;10.20;;;4.80;;
41077;SDS011;26823;42.662;23.352;2023-04-01T03:33:51;10.40;;;4.97;;
41077;SDS011;26823;42.662;23.352;2023-04-01T03:36:16;7.90;;;5.13;;
41077;SDS011;26823;42.662;23.352;2023-04-01T03:38:43;7.28;;;4.38;;
41077;SDS011;26823;42.662;23.352;2023-04-01T03:41:15;12.73;;;5.57;;
41077;SDS011;26823;42.662;23.352;2023-04-01T03:43:42;7.88;;;5.15;;
41077;SDS011;26823;42.662;23.352;2023-04-01T03:46:08;10.68;;;5.93;;
41077;SDS011;26823;42.662;23.352;2023-04-01T03:48:34;9.07;;;4.95;;
41077;SDS011;26823;42.662;23.352;2023-04-01T03:50:59;8.82;;;4.95;;
41077;SDS011;26823;42.662;23.352;2023-04-01T03:53:25;11.25;;;5.15;;
41077;SDS011;26823;42.662;23.352;2023-04-01T03:55:51;9.70;;;5.22;;
41077;SDS011;26823;42.662;23.352;2023-04-01T03:58:17;10.10;;;5.72;;
41077;SDS011;26823;42.662;23.352;2023-04-01T04:00:43;13.00;;;5.43;;
41077;SDS011;26823;42.662;23.352;2023-04-01T04:03:08;11.23;;;5.45;;
41077;SDS011;26823;42.662;23.352;2023-04-01T04:05:34;10.65;;;5.22;;
41077;SDS011;26823;42.662;23.352;2023-04-01T04:07:59;11.27;;;5.82;;
41077;SDS011;26823;42.662;23.352;2023-04-01T04:10:25;12.13;;;5.63;;
41077;SDS011;26823;42.662;23.352;2023-04-01T04:12:51;15.50;;;6.40;;
41077;SDS011;26823;42.662;23.352;2023-04-01T04:15:17;9.35;;;6.07;;
41077;SDS011;26823;42.662;23.352;2023-04-01T04:17:43;10.02;;;6.22;;
41077;SDS011;26823;42.662;23.352;2023-04-01T04:20:09;13.13;;;5.80;;
41077;SDS011;26823;42.662;23.352;2023-04-01T04:22:35;10.80;;;5.93;;
41077;SDS011;26823;42.662;23.352;2023-04-01T04:25:00;9.10;;;6.18;;
41077;SDS011;26823;42.662;23.352;2023-04-01T04:27:26;10.23;;;5.72;;
41077;SDS011;26823;42.662;23.352;2023-04-01T04:29:51;10.43;;;5.80;;
41077;SDS011;26823;42.662;23.352;2023-04-01T04:32:16;10.38;;;5.90;;
41077;SDS011;26823;42.662;23.352;2023-04-01T04:34:42;6.55;;;4.65;;
41077;SDS011;26823;42.662;23.352;2023-04-01T04:37:07;11.27;;;5.47;;
41077;SDS011;26823;42.662;23.352;2023-04-01T04:39:33;12.50;;;5.22;;
41077;SDS011;26823;42.662;23.352;2023-04-01T04:41:58;10.95;;;5.13;;
41077;SDS011;26823;42.662;23.352;2023-04-01T04:44:23;8.27;;;4.97;;
41077;SDS011;26823;42.662;23.352;2023-04-01T04:46:49;7.90;;;5.05;;
41077;SDS011;26823;42.662;23.352;2023-04-01T04:49:14;8.25;;;4.35;;
41077;SDS011;26823;42.662;23.352;2023-04-01T04:51:40;8.88;;;4.00;;
41077;SDS011;26823;42.662;23.352;2023-04-01T04:54:06;7.53;;;4.65;;
41077;SDS011;26823;42.662;23.352;2023-04-01T04:56:32;7.60;;;4.43;;
41077;SDS011;26823;42.662;23.352;2023-04-01T04:58:57;12.25;;;5.55;;
41077;SDS011;26823;42.662;23.352;2023-04-01T05:01:23;10.73;;;5.65;;
41077;SDS011;26823;42.662;23.352;2023-04-01T05:03:49;10.18;;;5.85;;
41077;SDS011;26823;42.662;23.352;2023-04-01T05:06:16;12.68;;;6.20;;
41077;SDS011;26823;42.662;23.352;2023-04-01T05:08:42;12.23;;;5.75;;
41077;SDS011;26823;42.662;23.352;2023-04-01T05:11:10;11.50;;;4.78;;
41077;SDS011;26823;42.662;23.352;2023-04-01T05:13:38;8.00;;;5.07;;
41077;SDS011;26823;42.662;23.352;2023-04-01T05:16:03;10.25;;;5.70;;
41077;SDS011;26823;42.662;23.352;2023-04-01T05:18:32;13.68;;;6.20;;
41077;SDS011;26823;42.662;23.352;2023-04-01T05:20:57;14.35;;;5.50;;
41077;SDS011;26823;42.662;23.352;2023-04-01T05:23:23;8.27;;;5.13;;
41077;SDS011;26823;42.662;23.352;2023-04-01T05:25:49;12.18;;;5.65;;
41077;SDS011;26823;42.662;23.352;2023-04-01T05:28:16;9.60;;;5.57;;
41077;SDS011;26823;42.662;23.352;2023-04-01T05:30:42;8.93;;;5.63;;
41077;SDS011;26823;42.662;23.352;2023-04-01T05:33:09;11.63;;;5.20;;
41077;SDS011;26823;42.662;23.352;2023-04-01T05:35:35;11.30;;;5.13;;
41077;SDS011;26823;42.662;23.352;2023-04-01T05:38:01;9.68;;;5.05;;
41077;SDS011;26823;42.662;23.352;2023-04-01T05:40:27;13.05;;;4.75;;
41077;SDS011;26823;42.662;23.352;2023-04-01T05:42:53;8.88;;;4.47;;
41077;SDS011;26823;42.662;23.352;2023-04-01T05:45:18;13.85;;;6.43;;
41077;SDS011;26823;42.662;23.352;2023-04-01T05:47:44;15.85;;;5.43;;
41077;SDS011;26823;42.662;23.352;2023-04-01T05:50:10;10.00;;;5.45;;
41077;SDS011;26823;42.662;23.352;2023-04-01T05:52:36;13.73;;;5.95;;
41077;SDS011;26823;42.662;23.352;2023-04-01T05:55:02;10.15;;;5.10;;
41077;SDS011;26823;42.662;23.352;2023-04-01T05:57:28;11.00;;;4.63;;
41077;SDS011;26823;42.662;23.352;2023-04-01T05:59:54;5.20;;;3.78;;
41077;SDS011;26823;42.662;23.352;2023-04-01T06:02:20;7.75;;;5.00;;
41077;SDS011;26823;42.662;23.352;2023-04-01T06:04:46;8.07;;;4.50;;
41077;SDS011;26823;42.662;23.352;2023-04-01T06:07:12;7.10;;;4.30;;
41077;SDS011;26823;42.662;23.352;2023-04-01T06:09:39;7.43;;;4.35;;
41077;SDS011;26823;42.662;23.352;2023-04-01T06:12:21;8.35;;;4.32;;
41077;SDS011;26823;42.662;23.352;2023-04-01T06:23:04;7.45;;;3.70;;
41077;SDS011;26823;42.662;23.352;2023-04-01T06:36:17;5.50;;;3.55;;
41077;SDS011;26823;42.662;23.352;2023-04-01T06:49:55;9.50;;;5.63;;
41077;SDS011;26823;42.662;23.352;2023-04-01T06:58:00;8.15;;;4.95;;
41077;SDS011;26823;42.662;23.352;2023-04-01T07:00:39;7.40;;;4.47;;
41077;SDS011;26823;42.662;23.352;2023-04-01T07:05:54;6.25;;;3.97;;
41077;SDS011;26823;42.662;23.352;2023-04-01T07:08:24;8.13;;;4.40;;
41077;SDS011;26823;42.662;23.352;2023-04-01T07:10:56;11.70;;;4.50;;
41077;SDS011;26823;42.662;23.352;2023-04-01T07:13:34;7.38;;;4.03;;
41077;SDS011;26823;42.662;23.352;2023-04-01T07:16:12;6.53;;;4.03;;
41077;SDS011;26823;42.662;23.352;2023-04-01T07:18:54;8.02;;;4.70;;
41077;SDS011;26823;42.662;23.352;2023-04-01T07:21:28;10.13;;;5.33;;
41077;SDS011;26823;42.662;23.352;2023-04-01T07:23:57;13.98;;;6.03;;
41077;SDS011;26823;42.662;23.352;2023-04-01T07:26:28;13.25;;;4.60;;
41077;SDS011;26823;42.662;23.352;2023-04-01T07:28:53;6.97;;;3.90;;
41077;SDS011;26823;42.662;23.352;2023-04-01T07:36:43;7.07;;;4.32;;
41077;SDS011;26823;42.662;23.352;2023-04-01T07:41:49;8.40;;;3.97;;
41077;SDS011;26823;42.662;23.352;2023-04-01T07:47:24;9.05;;;3.72;;
41077;SDS011;26823;42.662;23.352;2023-04-01T07:55:42;7.28;;;3.83;;
41077;SDS011;26823;42.662;23.352;2023-04-01T08:09:21;6.25;;;3.90;;
41077;SDS011;26823;42.662;23.352;2023-04-01T08:15:06;5.03;;;3.72;;
41077;SDS011;26823;42.662;23.352;2023-04-01T08:19:55;7.85;;;3.75;;
41077;SDS011;26823;42.662;23.352;2023-04-01T08:22:51;7.22;;;4.28;;
41077;SDS011;26823;42.662;23.352;2023-04-01T08:25:24;5.00;;;3.65;;
41077;SDS011;26823;42.662;23.352;2023-04-01T08:30:38;9.73;;;4.22;;
41077;SDS011;26823;42.662;23.352;2023-04-01T08:33:15;8.10;;;3.70;;
41077;SDS011;26823;42.662;23.352;2023-04-01T08:35:48;8.30;;;3.70;;
41077;SDS011;26823;42.662;23.352;2023-04-01T08:38:23;7.80;;;3.80;;
41077;SDS011;26823;42.662;23.352;2023-04-01T08:49:12;8.70;;;3.58;;
41077;SDS011;26823;42.662;23.352;2023-04-01T09:00:49;13.10;;;4.40;;
41077;SDS011;26823;42.662;23.352;2023-04-01T09:19:52;7.65;;;3.25;;
41077;SDS011;26823;42.662;23.352;2023-04-01T09:28:28;5.88;;;3.67;;
41077;SDS011;26823;42.662;23.352;2023-04-01T09:30:31;11.25;;;2.97;;
41077;SDS011;26823;42.662;23.352;2023-04-01T09:35:55;5.70;;;2.70;;
41077;SDS011;26823;42.662;23.352;2023-04-01T09:41:22;3.10;;;2.53;;
41077;SDS011;26823;42.662;23.352;2023-04-01T09:44:57;9.73;;;2.97;;
41077;SDS011;26823;42.662;23.352;2023-04-01T09:50:41;3.70;;;2.05;;
41077;SDS011;26823;42.662;23.352;2023-04-01T09:52:48;4.30;;;2.40;;
41077;SDS011;26823;42.662;23.352;2023-04-01T09:58:19;7.40;;;2.50;;
41077;SDS011;26823;42.662;23.352;2023-04-01T10:20:46;7.15;;;2.40;;
41077;SDS011;26823;42.662;23.352;2023-04-01T10:26:38;5.90;;;2.17;;
41077;SDS011;26823;42.662;23.352;2023-04-01T10:29:41;2.55;;;2.10;;
41077;SDS011;26823;42.662;23.352;2023-04-01T10:32:43;4.43;;;2.55;;
41077;SDS011;26823;42.662;23.352;2023-04-01T10:38:13;5.20;;;2.70;;
41077;SDS011;26823;42.662;23.352;2023-04-01T10:43:55;7.60;;;2.33;;
41077;SDS011;26823;42.662;23.352;2023-04-01T11:44:43;3.38;;;1.30;;
41077;SDS011;26823;42.662;23.352;2023-04-01T11:56:13;7.40;;;2.00;;
41077;SDS011;26823;42.662;23.352;2023-04-01T12:04:46;8.18;;;1.80;;
41077;SDS011;26823;42.662;23.352;2023-04-01T12:07:45;5.47;;;1.73;;
41077;SDS011;26823;42.662;23.352;2023-04-01T12:10:18;4.70;;;1.65;;
41077;SDS011;26823;42.662;23.352;2023-04-01T12:27:41;4.85;;;2.03;;
41077;SDS011;26823;42.662;23.352;2023-04-01T12:32:45;5.95;;;2.05;;
41077;SDS011;26823;42.662;23.352;2023-04-01T12:35:20;3.67;;;1.90;;
41077;SDS011;26823;42.662;23.352;2023-04-01T12:43:05;6.10;;;3.70;;
41077;SDS011;26823;42.662;23.352;2023-04-01T12:46:10;4.33;;;2.67;;
41077;SDS011;26823;42.662;23.352;2023-04-01T12:51:50;4.90;;;2.70;;
41077;SDS011;26823;42.662;23.352;2023-04-01T12:57:31;6.03;;;2.75;;
41077;SDS011;26823;42.662;23.352;2023-04-01T13:06:18;9.10;;;2.80;;
41077;SDS011;26823;42.662;23.352;2023-04-01T13:08:49;4.15;;;2.65;;
41077;SDS011;26823;42.662;23.352;2023-04-01T13:16:35;5.65;;;3.13;;
41077;SDS011;26823;42.662;23.352;2023-04-01T13:27:30;6.40;;;2.78;;
41077;SDS011;26823;42.662;23.352;2023-04-01T13:30:49;6.20;;;2.50;;
41077;SDS011;26823;42.662;23.352;2023-04-01T13:36:32;7.03;;;2.40;;
41077;SDS011;26823;42.662;23.352;2023-04-01T13:42:21;8.05;;;3.08;;
41077;SDS011;26823;42.662;23.352;2023-04-01T14:07:00;5.00;;;2.38;;
41077;SDS011;26823;42.662;23.352;2023-04-01T14:18:30;9.75;;;6.70;;
41077;SDS011;26823;42.662;23.352;2023-04-01T14:29:30;6.50;;;3.72;;
41077;SDS011;26823;42.662;23.352;2023-04-01T14:33:23;6.85;;;3.05;;
41077;SDS011;26823;42.662;23.352;2023-04-01T14:46:58;4.85;;;2.47;;
41077;SDS011;26823;42.662;23.352;2023-04-01T14:49:37;4.03;;;2.35;;
41077;SDS011;26823;42.662;23.352;2023-04-01T14:52:11;3.78;;;2.63;;
41077;SDS011;26823;42.662;23.352;2023-04-01T14:54:41;4.35;;;2.60;;
41077;SDS011;26823;42.662;23.352;2023-04-01T14:57:16;5.70;;;2.67;;
41077;SDS011;26823;42.662;23.352;2023-04-01T14:59:54;3.47;;;2.25;;
41077;SDS011;26823;42.662;23.352;2023-04-01T15:05:38;5.63;;;2.53;;
41077;SDS011;26823;42.662;23.352;2023-04-01T15:42:41;5.63;;;2.75;;
41077;SDS011;26823;42.662;23.352;2023-04-01T15:48:13;4.70;;;2.38;;
41077;SDS011;26823;42.662;23.352;2023-04-01T15:50:54;4.28;;;2.65;;
41077;SDS011;26823;42.662;23.352;2023-04-01T15:55:57;1.75;;;1.40;;
41077;SDS011;26823;42.662;23.352;2023-04-01T16:01:29;1.30;;;1.20;;
41077;SDS011;26823;42.662;23.352;2023-04-01T16:10:16;2.67;;;2.40;;
41077;SDS011;26823;42.662;23.352;2023-04-01T16:13:03;2.30;;;1.80;;
41077;SDS011;26823;42.662;23.352;2023-04-01T16:15:57;4.10;;;2.50;;
41077;SDS011;26823;42.662;23.352;2023-04-01T16:37:27;5.45;;;2.90;;
41077;SDS011;26823;42.662;23.352;2023-04-01T16:45:35;3.10;;;2.30;;
41077;SDS011;26823;42.662;23.352;2023-04-01T16:48:18;2.78;;;1.90;;
41077;SDS011;26823;42.662;23.352;2023-04-01T16:50:53;4.40;;;2.28;;
41077;SDS011;26823;42.662;23.352;2023-04-01T16:59:27;2.25;;;2.05;;
41077;SDS011;26823;42.662;23.352;2023-04-01T17:04:45;1.67;;;1.35;;
41077;SDS011;26823;42.662;23.352;2023-04-01T17:10:25;1.52;;;1.40;;
41077;SDS011;26823;42.662;23.352;2023-04-01T17:24:26;2.53;;;1.38;;
41077;SDS011;26823;42.662;23.352;2023-04-01T17:35:38;1.50;;;1.38;;
41077;SDS011;26823;42.662;23.352;2023-04-01T17:38:24;1.48;;;1.10;;
41077;SDS011;26823;42.662;23.352;2023-04-01T18:06:19;2.10;;;1.70;;
41077;SDS011;26823;42.662;23.352;2023-04-01T18:14:36;3.88;;;2.63;;
41077;SDS011;26823;42.662;23.352;2023-04-01T18:23:39;3.50;;;2.58;;
41077;SDS011;26823;42.662;23.352;2023-04-01T18:26:13;3.15;;;2.83;;
41077;SDS011;26823;42.662;23.352;2023-04-01T18:31:47;2.92;;;2.58;;
41077;SDS011;26823;42.662;23.352;2023-04-01T18:37:28;2.80;;;2.50;;
41077;SDS011;26823;42.662;23.352;2023-04-01T18:40:13;2.75;;;2.50;;
41077;SDS011;26823;42.662;23.352;2023-04-01T18:45:27;3.65;;;2.53;;
41077;SDS011;26823;42.662;23.352;2023-04-01T18:48:03;2.47;;;2.17;;
41077;SDS011;26823;42.662;23.352;2023-04-01T18:53:22;3.78;;;2.05;;
41077;SDS011;26823;42.662;23.352;2023-04-01T18:56:09;2.40;;;2.20;;
41077;SDS011;26823;42.662;23.352;2023-04-01T18:58:48;2.35;;;1.65;;
41077;SDS011;26823;42.662;23.352;2023-04-01T19:04:10;1.95;;;1.75;;
41077;SDS011;26823;42.662;23.352;2023-04-01T19:06:53;11.30;;;2.28;;
41077;SDS011;26823;42.662;23.352;2023-04-01T19:11:54;2.00;;;1.77;;
41077;SDS011;26823;42.662;23.352;2023-04-01T19:27:49;1.60;;;1.50;;
41077;SDS011;26823;42.662;23.352;2023-04-01T19:30:29;3.13;;;1.75;;
41077;SDS011;26823;42.662;23.352;2023-04-01T19:33:09;1.10;;;1.00;;
41077;SDS011;26823;42.662;23.352;2023-04-01T19:35:47;1.30;;;1.20;;
41077;SDS011;26823;42.662;23.352;2023-04-01T19:38:37;1.67;;;1.23;;
41077;SDS011;26823;42.662;23.352;2023-04-01T19:46:51;1.48;;;1.33;;
41077;SDS011;26823;42.662;23.352;2023-04-01T20:00:57;1.33;;;1.23;;
41077;SDS011;26823;42.662;23.352;2023-04-01T20:12:00;1.30;;;1.20;;
41077;SDS011;26823;42.662;23.352;2023-04-01T20:17:25;2.92;;;1.70;;
41077;SDS011;26823;42.662;23.352;2023-04-01T20:20:15;2.05;;;1.50;;
41077;SDS011;26823;42.662;23.352;2023-04-01T20:25:26;2.70;;;1.48;;
41077;SDS011;26823;42.662;23.352;2023-04-01T20:35:45;1.60;;;1.50;;
41077;SDS011;26823;42.662;23.352;2023-04-01T20:44:03;1.75;;;1.33;;
41077;SDS011;26823;42.662;23.352;2023-04-01T20:49:28;1.90;;;1.65;;
41077;SDS011;26823;42.662;23.352;2023-04-01T20:52:01;1.55;;;1.45;;
41077;SDS011;26823;42.662;23.352;2023-04-01T21:02:40;1.75;;;1.50;;
41077;SDS011;26823;42.662;23.352;2023-04-01T21:48:47;1.90;;;1.30;;
41077;SDS011;26823;42.662;23.352;2023-04-01T21:51:48;1.42;;;1.30;;
41077;SDS011;26823;42.662;23.352;2023-04-01T21:57:26;3.75;;;1.48;;
41077;SDS011;26823;42.662;23.352;2023-04-01T22:08:50;1.60;;;1.10;;
41077;SDS011;26823;42.662;23.352;2023-04-01T22:11:47;1.88;;;1.20;;
41077;SDS011;26823;42.662;23.352;2023-04-01T22:14:37;1.55;;;1.45;;
41077;SDS011;26823;42.662;23.352;2023-04-01T22:28:46;2.78;;;1.77;;
41077;SDS011;26823;42.662;23.352;2023-04-01T22:31:14;1.25;;;0.90;;
41077;SDS011;26823;42.662;23.352;2023-04-01T22:34:04;1.40;;;1.02;;
41077;SDS011;26823;42.662;23.352;2023-04-01T22:36:39;1.00;;;0.90;;
41077;SDS011;26823;42.662;23.352;2023-04-01T22:55:56;2.15;;;1.45;;
41077;SDS011;26823;42.662;23.352;2023-04-01T22:58:29;1.92;;;1.20;;
41077;SDS011;26823;42.662;23.352;2023-04-01T23:01:14;1.33;;;1.10;;
41077;SDS011;26823;42.662;23.352;2023-04-01T23:03:44;1.92;;;1.40;;
41077;SDS011;26823;42.662;23.352;2023-04-01T23:06:18;2.28;;;1.70;;
41077;SDS011;26823;42.662;23.352;2023-04-01T23:16:43;3.13;;;1.00;;
41077;SDS011;26823;42.662;23.352;2023-04-01T23:22:16;0.85;;;0.68;;
41077;SDS011;26823;42.662;23.352;2023-04-01T23:27:33;0.60;;;0.60;;
41077;SDS011;26823;42.662;23.352;2023-04-01T23:30:11;0.90;;;0.90;;
41077;SDS011;26823;42.662;23.352;2023-04-01T23:33:19;0.50;;;0.50;;
41077;SDS011;26823;42.662;23.352;2023-04-01T23:35:54;0.77;;;0.60;;
41077;SDS011;26823;42.662;23.352;2023-04-01T23:38:21;1.00;;;0.60;;
41077;SDS011;26823;42.662;23.352;2023-04-01T23:40:49;1.35;;;0.60;;
41077;SDS011;26823;42.662;23.352;2023-04-01T23:43:26;1.27;;;0.55;;
41077;SDS011;26823;42.662;23.352;2023-04-01T23:45:58;1.08;;;0.50;;
41077;SDS011;26823;42.662;23.352;2023-04-01T23:48:39;0.85;;;0.50;;
41077;SDS011;26823;42.662;23.352;2023-04-01T23:51:49;2.10;;;0.52;;
41077;SDS011;26823;42.662;23.352;2023-04-01T23:56:39;0.68;;;0.50;;
41077;SDS011;26823;42.662;23.352;2023-04-01T23:59:11;2.38;;;0.30;;
